sensor_id;sensor_type;location;lat;lon;timestamp;P1;durP1;ratioP1;P2;durP2;ratioP2
48835;SDS011;62581;47.342;7.908;2023-12-20T00:00:21;38.85;;;18.15;;
48835;SDS011;62581;47.342;7.908;2023-12-20T00:02:48;39.08;;;19.52;;
48835;SDS011;62581;47.342;7.908;2023-12-20T00:05:15;35.22;;;18.10;;
48835;SDS011;62581;47.342;7.908;2023-12-20T00:07:42;39.85;;;18.30;;
48835;SDS011;62581;47.342;7.908;2023-12-20T00:10:09;38.25;;;17.95;;
48835;SDS011;62581;47.342;7.908;2023-12-20T00:12:38;34.88;;;17.05;;
48835;SDS011;62581;47.342;7.908;2023-12-20T00:15:07;41.30;;;19.03;;
48835;SDS011;62581;47.342;7.908;2023-12-20T00:17:34;34.65;;;17.88;;
48835;SDS011;62581;47.342;7.908;2023-12-20T00:20:01;38.33;;;19.20;;
48835;SDS011;62581;47.342;7.908;2023-12-20T00:22:28;38.65;;;18.92;;
48835;SDS011;62581;47.342;7.908;2023-12-20T00:24:55;38.15;;;18.20;;
48835;SDS011;62581;47.342;7.908;2023-12-20T00:27:22;35.17;;;17.95;;
48835;SDS011;62581;47.342;7.908;2023-12-20T00:29:49;41.35;;;19.33;;
48835;SDS011;62581;47.342;7.908;2023-12-20T00:32:17;42.10;;;19.50;;
48835;SDS011;62581;47.342;7.908;2023-12-20T00:34:44;37.85;;;19.17;;
48835;SDS011;62581;47.342;7.908;2023-12-20T00:37:11;40.08;;;19.13;;
48835;SDS011;62581;47.342;7.908;2023-12-20T00:39:38;44.88;;;20.63;;
48835;SDS011;62581;47.342;7.908;2023-12-20T00:42:05;45.95;;;19.25;;
48835;SDS011;62581;47.342;7.908;2023-12-20T00:44:32;34.15;;;16.92;;
48835;SDS011;62581;47.342;7.908;2023-12-20T00:46:59;37.90;;;19.00;;
48835;SDS011;62581;47.342;7.908;2023-12-20T00:49:27;35.30;;;18.33;;
48835;SDS011;62581;47.342;7.908;2023-12-20T00:51:54;35.08;;;18.67;;
48835;SDS011;62581;47.342;7.908;2023-12-20T00:54:21;32.50;;;17.40;;
48835;SDS011;62581;47.342;7.908;2023-12-20T00:56:48;36.28;;;17.65;;
48835;SDS011;62581;47.342;7.908;2023-12-20T00:59:16;34.25;;;17.27;;
48835;SDS011;62581;47.342;7.908;2023-12-20T01:01:43;34.85;;;16.73;;
48835;SDS011;62581;47.342;7.908;2023-12-20T01:04:10;33.33;;;17.48;;
48835;SDS011;62581;47.342;7.908;2023-12-20T01:06:39;34.65;;;16.60;;
48835;SDS011;62581;47.342;7.908;2023-12-20T01:09:06;30.27;;;15.98;;
48835;SDS011;62581;47.342;7.908;2023-12-20T01:11:32;34.05;;;16.30;;
48835;SDS011;62581;47.342;7.908;2023-12-20T01:13:59;32.20;;;17.88;;
48835;SDS011;62581;47.342;7.908;2023-12-20T01:16:26;36.20;;;17.08;;
48835;SDS011;62581;47.342;7.908;2023-12-20T01:18:53;31.67;;;16.33;;
48835;SDS011;62581;47.342;7.908;2023-12-20T01:21:20;27.08;;;15.38;;
48835;SDS011;62581;47.342;7.908;2023-12-20T01:23:48;32.80;;;16.52;;
48835;SDS011;62581;47.342;7.908;2023-12-20T01:26:15;32.10;;;16.83;;
48835;SDS011;62581;47.342;7.908;2023-12-20T01:28:43;30.73;;;17.30;;
48835;SDS011;62581;47.342;7.908;2023-12-20T01:31:09;30.58;;;15.52;;
48835;SDS011;62581;47.342;7.908;2023-12-20T01:33:36;31.33;;;15.60;;
48835;SDS011;62581;47.342;7.908;2023-12-20T01:36:04;29.25;;;16.42;;
48835;SDS011;62581;47.342;7.908;2023-12-20T01:38:31;28.95;;;16.42;;
48835;SDS011;62581;47.342;7.908;2023-12-20T01:40:59;28.48;;;15.85;;
48835;SDS011;62581;47.342;7.908;2023-12-20T01:43:26;27.08;;;14.70;;
48835;SDS011;62581;47.342;7.908;2023-12-20T01:45:53;28.45;;;15.88;;
48835;SDS011;62581;47.342;7.908;2023-12-20T01:48:22;27.05;;;15.40;;
48835;SDS011;62581;47.342;7.908;2023-12-20T01:50:49;29.77;;;16.20;;
48835;SDS011;62581;47.342;7.908;2023-12-20T01:53:17;30.35;;;16.52;;
48835;SDS011;62581;47.342;7.908;2023-12-20T01:55:47;29.13;;;15.90;;
48835;SDS011;62581;47.342;7.908;2023-12-20T01:58:18;34.25;;;16.63;;
48835;SDS011;62581;47.342;7.908;2023-12-20T02:00:45;31.08;;;17.17;;
48835;SDS011;62581;47.342;7.908;2023-12-20T02:03:13;31.63;;;16.33;;
48835;SDS011;62581;47.342;7.908;2023-12-20T02:05:40;31.38;;;16.50;;
48835;SDS011;62581;47.342;7.908;2023-12-20T02:08:07;28.65;;;15.63;;
48835;SDS011;62581;47.342;7.908;2023-12-20T02:10:34;30.92;;;16.33;;
48835;SDS011;62581;47.342;7.908;2023-12-20T02:13:01;33.58;;;16.48;;
48835;SDS011;62581;47.342;7.908;2023-12-20T02:15:30;28.40;;;16.25;;
48835;SDS011;62581;47.342;7.908;2023-12-20T02:17:59;30.35;;;15.85;;
48835;SDS011;62581;47.342;7.908;2023-12-20T02:20:27;28.40;;;16.05;;
48835;SDS011;62581;47.342;7.908;2023-12-20T02:22:55;29.10;;;15.93;;
48835;SDS011;62581;47.342;7.908;2023-12-20T02:25:22;30.30;;;15.95;;
48835;SDS011;62581;47.342;7.908;2023-12-20T02:27:49;29.92;;;16.17;;
48835;SDS011;62581;47.342;7.908;2023-12-20T02:30:16;25.20;;;14.57;;
48835;SDS011;62581;47.342;7.908;2023-12-20T02:32:43;29.83;;;15.30;;
48835;SDS011;62581;47.342;7.908;2023-12-20T02:35:10;28.65;;;15.10;;
48835;SDS011;62581;47.342;7.908;2023-12-20T02:37:37;28.65;;;15.05;;
48835;SDS011;62581;47.342;7.908;2023-12-20T02:40:06;25.73;;;14.52;;
48835;SDS011;62581;47.342;7.908;2023-12-20T02:42:33;31.27;;;15.90;;
48835;SDS011;62581;47.342;7.908;2023-12-20T02:45:00;25.13;;;14.95;;
48835;SDS011;62581;47.342;7.908;2023-12-20T02:47:27;29.25;;;16.05;;
48835;SDS011;62581;47.342;7.908;2023-12-20T02:49:55;30.17;;;15.63;;
48835;SDS011;62581;47.342;7.908;2023-12-20T02:52:22;26.05;;;14.90;;
48835;SDS011;62581;47.342;7.908;2023-12-20T02:54:49;29.08;;;16.00;;
48835;SDS011;62581;47.342;7.908;2023-12-20T02:57:18;34.10;;;17.00;;
48835;SDS011;62581;47.342;7.908;2023-12-20T02:59:45;28.35;;;15.95;;
48835;SDS011;62581;47.342;7.908;2023-12-20T03:02:12;30.08;;;16.55;;
48835;SDS011;62581;47.342;7.908;2023-12-20T03:04:39;27.45;;;15.38;;
48835;SDS011;62581;47.342;7.908;2023-12-20T03:07:05;33.17;;;16.10;;
48835;SDS011;62581;47.342;7.908;2023-12-20T03:09:32;31.40;;;16.02;;
48835;SDS011;62581;47.342;7.908;2023-12-20T03:11:59;35.20;;;17.20;;
48835;SDS011;62581;47.342;7.908;2023-12-20T03:14:28;33.60;;;17.05;;
48835;SDS011;62581;47.342;7.908;2023-12-20T03:16:54;33.38;;;15.13;;
48835;SDS011;62581;47.342;7.908;2023-12-20T03:19:21;35.40;;;16.77;;
48835;SDS011;62581;47.342;7.908;2023-12-20T03:21:48;34.58;;;18.15;;
48835;SDS011;62581;47.342;7.908;2023-12-20T03:24:15;30.95;;;16.30;;
48835;SDS011;62581;47.342;7.908;2023-12-20T03:26:42;32.42;;;16.90;;
48835;SDS011;62581;47.342;7.908;2023-12-20T03:29:09;38.75;;;18.65;;
48835;SDS011;62581;47.342;7.908;2023-12-20T03:31:38;30.55;;;16.92;;
48835;SDS011;62581;47.342;7.908;2023-12-20T03:34:04;31.25;;;15.73;;
48835;SDS011;62581;47.342;7.908;2023-12-20T03:36:31;33.17;;;17.30;;
48835;SDS011;62581;47.342;7.908;2023-12-20T03:38:58;30.60;;;17.10;;
48835;SDS011;62581;47.342;7.908;2023-12-20T03:41:25;33.20;;;16.67;;
48835;SDS011;62581;47.342;7.908;2023-12-20T03:43:52;32.58;;;16.40;;
48835;SDS011;62581;47.342;7.908;2023-12-20T03:46:19;27.05;;;15.52;;
48835;SDS011;62581;47.342;7.908;2023-12-20T03:48:48;27.88;;;16.25;;
48835;SDS011;62581;47.342;7.908;2023-12-20T03:51:14;32.05;;;17.63;;
48835;SDS011;62581;47.342;7.908;2023-12-20T03:53:41;30.35;;;15.15;;
48835;SDS011;62581;47.342;7.908;2023-12-20T03:56:08;28.88;;;15.25;;
48835;SDS011;62581;47.342;7.908;2023-12-20T03:58:35;27.48;;;15.05;;
48835;SDS011;62581;47.342;7.908;2023-12-20T04:01:02;27.55;;;16.52;;
48835;SDS011;62581;47.342;7.908;2023-12-20T04:03:29;29.05;;;15.32;;
48835;SDS011;62581;47.342;7.908;2023-12-20T04:05:57;28.15;;;16.08;;
48835;SDS011;62581;47.342;7.908;2023-12-20T04:08:24;31.92;;;16.67;;
48835;SDS011;62581;47.342;7.908;2023-12-20T04:10:51;32.53;;;16.40;;
48835;SDS011;62581;47.342;7.908;2023-12-20T04:13:18;29.92;;;16.58;;
48835;SDS011;62581;47.342;7.908;2023-12-20T04:15:45;31.23;;;16.55;;
48835;SDS011;62581;47.342;7.908;2023-12-20T04:18:12;29.55;;;17.20;;
48835;SDS011;62581;47.342;7.908;2023-12-20T04:20:39;29.80;;;15.80;;
48835;SDS011;62581;47.342;7.908;2023-12-20T04:23:07;32.22;;;17.17;;
48835;SDS011;62581;47.342;7.908;2023-12-20T04:25:34;32.00;;;17.00;;
48835;SDS011;62581;47.342;7.908;2023-12-20T04:28:01;32.58;;;16.75;;
48835;SDS011;62581;47.342;7.908;2023-12-20T04:30:27;28.98;;;16.63;;
48835;SDS011;62581;47.342;7.908;2023-12-20T04:32:54;31.73;;;17.13;;
48835;SDS011;62581;47.342;7.908;2023-12-20T04:35:22;33.72;;;17.02;;
48835;SDS011;62581;47.342;7.908;2023-12-20T04:37:49;36.55;;;18.33;;
48835;SDS011;62581;47.342;7.908;2023-12-20T04:40:17;33.03;;;17.50;;
48835;SDS011;62581;47.342;7.908;2023-12-20T04:42:45;36.50;;;19.42;;
48835;SDS011;62581;47.342;7.908;2023-12-20T04:45:12;36.25;;;18.02;;
48835;SDS011;62581;47.342;7.908;2023-12-20T04:47:41;33.75;;;18.15;;
48835;SDS011;62581;47.342;7.908;2023-12-20T04:50:08;35.97;;;18.83;;
48835;SDS011;62581;47.342;7.908;2023-12-20T04:52:38;32.80;;;17.98;;
48835;SDS011;62581;47.342;7.908;2023-12-20T04:55:05;30.10;;;16.17;;
48835;SDS011;62581;47.342;7.908;2023-12-20T04:57:35;33.25;;;16.67;;
48835;SDS011;62581;47.342;7.908;2023-12-20T05:00:02;33.30;;;17.95;;
48835;SDS011;62581;47.342;7.908;2023-12-20T05:02:29;30.88;;;15.82;;
48835;SDS011;62581;47.342;7.908;2023-12-20T05:04:56;28.88;;;17.20;;
48835;SDS011;62581;47.342;7.908;2023-12-20T05:07:23;27.63;;;16.30;;
48835;SDS011;62581;47.342;7.908;2023-12-20T05:09:50;32.38;;;16.33;;
48835;SDS011;62581;47.342;7.908;2023-12-20T05:12:18;34.17;;;17.65;;
48835;SDS011;62581;47.342;7.908;2023-12-20T05:14:47;28.52;;;15.98;;
48835;SDS011;62581;47.342;7.908;2023-12-20T05:17:14;33.10;;;17.75;;
48835;SDS011;62581;47.342;7.908;2023-12-20T05:19:41;35.38;;;19.02;;
48835;SDS011;62581;47.342;7.908;2023-12-20T05:22:07;32.97;;;17.35;;
48835;SDS011;62581;47.342;7.908;2023-12-20T05:24:35;33.83;;;17.60;;
48835;SDS011;62581;47.342;7.908;2023-12-20T05:27:01;34.47;;;18.20;;
48835;SDS011;62581;47.342;7.908;2023-12-20T05:29:28;32.53;;;18.05;;
48835;SDS011;62581;47.342;7.908;2023-12-20T05:31:57;34.30;;;18.13;;
48835;SDS011;62581;47.342;7.908;2023-12-20T05:34:24;37.28;;;18.80;;
48835;SDS011;62581;47.342;7.908;2023-12-20T05:36:51;37.20;;;19.60;;
48835;SDS011;62581;47.342;7.908;2023-12-20T05:39:18;33.47;;;18.70;;
48835;SDS011;62581;47.342;7.908;2023-12-20T05:41:45;36.17;;;18.80;;
48835;SDS011;62581;47.342;7.908;2023-12-20T05:44:12;31.67;;;18.60;;
48835;SDS011;62581;47.342;7.908;2023-12-20T05:46:39;32.78;;;16.80;;
48835;SDS011;62581;47.342;7.908;2023-12-20T05:49:08;36.42;;;17.50;;
48835;SDS011;62581;47.342;7.908;2023-12-20T05:51:35;31.05;;;17.08;;
48835;SDS011;62581;47.342;7.908;2023-12-20T05:54:02;32.40;;;18.60;;
48835;SDS011;62581;47.342;7.908;2023-12-20T05:56:29;33.95;;;18.95;;
48835;SDS011;62581;47.342;7.908;2023-12-20T05:58:56;37.03;;;19.80;;
48835;SDS011;62581;47.342;7.908;2023-12-20T06:01:23;36.38;;;17.90;;
48835;SDS011;62581;47.342;7.908;2023-12-20T06:03:50;35.08;;;19.35;;
48835;SDS011;62581;47.342;7.908;2023-12-20T06:06:19;34.85;;;19.02;;
48835;SDS011;62581;47.342;7.908;2023-12-20T06:08:46;38.08;;;20.20;;
48835;SDS011;62581;47.342;7.908;2023-12-20T06:11:12;37.45;;;20.35;;
48835;SDS011;62581;47.342;7.908;2023-12-20T06:13:40;43.72;;;21.70;;
48835;SDS011;62581;47.342;7.908;2023-12-20T06:16:06;37.28;;;20.73;;
48835;SDS011;62581;47.342;7.908;2023-12-20T06:18:33;37.10;;;20.73;;
48835;SDS011;62581;47.342;7.908;2023-12-20T06:21:03;40.17;;;21.77;;
48835;SDS011;62581;47.342;7.908;2023-12-20T06:23:33;37.20;;;21.33;;
48835;SDS011;62581;47.342;7.908;2023-12-20T06:26:00;35.22;;;19.50;;
48835;SDS011;62581;47.342;7.908;2023-12-20T06:28:27;37.67;;;20.50;;
48835;SDS011;62581;47.342;7.908;2023-12-20T06:30:54;42.50;;;21.65;;
48835;SDS011;62581;47.342;7.908;2023-12-20T06:33:22;40.10;;;22.60;;
48835;SDS011;62581;47.342;7.908;2023-12-20T06:35:49;39.53;;;22.20;;
48835;SDS011;62581;47.342;7.908;2023-12-20T06:38:17;42.20;;;21.88;;
48835;SDS011;62581;47.342;7.908;2023-12-20T06:40:46;36.72;;;21.15;;
48835;SDS011;62581;47.342;7.908;2023-12-20T06:43:13;43.53;;;21.98;;
48835;SDS011;62581;47.342;7.908;2023-12-20T06:45:40;37.45;;;21.33;;
48835;SDS011;62581;47.342;7.908;2023-12-20T06:48:07;37.95;;;20.42;;
48835;SDS011;62581;47.342;7.908;2023-12-20T06:50:36;42.58;;;20.38;;
48835;SDS011;62581;47.342;7.908;2023-12-20T06:53:05;38.72;;;20.50;;
48835;SDS011;62581;47.342;7.908;2023-12-20T06:55:33;37.28;;;20.55;;
48835;SDS011;62581;47.342;7.908;2023-12-20T06:58:02;40.92;;;20.55;;
48835;SDS011;62581;47.342;7.908;2023-12-20T07:00:29;29.27;;;16.83;;
48835;SDS011;62581;47.342;7.908;2023-12-20T07:02:56;35.78;;;19.05;;
48835;SDS011;62581;47.342;7.908;2023-12-20T07:05:24;33.45;;;18.73;;
48835;SDS011;62581;47.342;7.908;2023-12-20T07:07:51;35.20;;;19.92;;
48835;SDS011;62581;47.342;7.908;2023-12-20T07:10:18;37.60;;;20.92;;
48835;SDS011;62581;47.342;7.908;2023-12-20T07:12:45;38.88;;;20.10;;
48835;SDS011;62581;47.342;7.908;2023-12-20T07:15:15;37.30;;;21.83;;
48835;SDS011;62581;47.342;7.908;2023-12-20T07:17:42;40.47;;;21.88;;
48835;SDS011;62581;47.342;7.908;2023-12-20T07:20:09;43.35;;;22.45;;
48835;SDS011;62581;47.342;7.908;2023-12-20T07:22:37;43.17;;;22.83;;
48835;SDS011;62581;47.342;7.908;2023-12-20T07:25:04;41.30;;;23.48;;
48835;SDS011;62581;47.342;7.908;2023-12-20T07:27:32;47.90;;;23.40;;
48835;SDS011;62581;47.342;7.908;2023-12-20T07:29:59;37.55;;;22.23;;
48835;SDS011;62581;47.342;7.908;2023-12-20T07:32:27;47.47;;;23.88;;
48835;SDS011;62581;47.342;7.908;2023-12-20T07:34:54;44.03;;;24.48;;
48835;SDS011;62581;47.342;7.908;2023-12-20T07:37:21;44.33;;;22.98;;
48835;SDS011;62581;47.342;7.908;2023-12-20T07:39:48;40.10;;;21.77;;
48835;SDS011;62581;47.342;7.908;2023-12-20T07:42:15;39.83;;;22.27;;
48835;SDS011;62581;47.342;7.908;2023-12-20T07:44:42;38.35;;;21.55;;
48835;SDS011;62581;47.342;7.908;2023-12-20T07:47:09;36.05;;;21.30;;
48835;SDS011;62581;47.342;7.908;2023-12-20T07:49:38;40.58;;;21.70;;
48835;SDS011;62581;47.342;7.908;2023-12-20T07:52:05;41.65;;;22.92;;
48835;SDS011;62581;47.342;7.908;2023-12-20T07:54:33;40.55;;;22.85;;
48835;SDS011;62581;47.342;7.908;2023-12-20T07:57:00;37.47;;;21.25;;
48835;SDS011;62581;47.342;7.908;2023-12-20T07:59:27;38.67;;;22.42;;
48835;SDS011;62581;47.342;7.908;2023-12-20T08:01:54;40.90;;;22.98;;
48835;SDS011;62581;47.342;7.908;2023-12-20T08:04:20;41.30;;;23.35;;
48835;SDS011;62581;47.342;7.908;2023-12-20T08:06:50;43.22;;;23.20;;
48835;SDS011;62581;47.342;7.908;2023-12-20T08:09:17;41.97;;;21.85;;
48835;SDS011;62581;47.342;7.908;2023-12-20T08:11:44;40.25;;;21.80;;
48835;SDS011;62581;47.342;7.908;2023-12-20T08:14:11;40.28;;;21.38;;
48835;SDS011;62581;47.342;7.908;2023-12-20T08:16:39;42.13;;;22.48;;
48835;SDS011;62581;47.342;7.908;2023-12-20T08:19:06;38.28;;;20.45;;
48835;SDS011;62581;47.342;7.908;2023-12-20T08:21:33;40.22;;;21.35;;
48835;SDS011;62581;47.342;7.908;2023-12-20T08:24:01;43.10;;;21.85;;
48835;SDS011;62581;47.342;7.908;2023-12-20T08:26:28;38.25;;;21.02;;
48835;SDS011;62581;47.342;7.908;2023-12-20T08:28:55;36.30;;;21.17;;
48835;SDS011;62581;47.342;7.908;2023-12-20T08:31:22;36.75;;;20.20;;
48835;SDS011;62581;47.342;7.908;2023-12-20T08:33:49;34.40;;;19.50;;
48835;SDS011;62581;47.342;7.908;2023-12-20T08:36:18;37.92;;;20.00;;
48835;SDS011;62581;47.342;7.908;2023-12-20T08:41:15;30.92;;;17.80;;
48835;SDS011;62581;47.342;7.908;2023-12-20T08:43:42;35.92;;;19.02;;
48835;SDS011;62581;47.342;7.908;2023-12-20T08:46:09;33.22;;;18.70;;
48835;SDS011;62581;47.342;7.908;2023-12-20T08:48:36;44.03;;;20.23;;
48835;SDS011;62581;47.342;7.908;2023-12-20T08:51:03;37.85;;;21.02;;
48835;SDS011;62581;47.342;7.908;2023-12-20T08:55:59;34.60;;;20.08;;
48835;SDS011;62581;47.342;7.908;2023-12-20T08:58:28;36.15;;;20.33;;
48835;SDS011;62581;47.342;7.908;2023-12-20T09:00:55;33.15;;;19.73;;
48835;SDS011;62581;47.342;7.908;2023-12-20T09:03:22;36.70;;;20.50;;
48835;SDS011;62581;47.342;7.908;2023-12-20T09:05:49;31.50;;;19.80;;
48835;SDS011;62581;47.342;7.908;2023-12-20T09:08:16;33.10;;;18.60;;
48835;SDS011;62581;47.342;7.908;2023-12-20T09:10:43;32.42;;;20.20;;
48835;SDS011;62581;47.342;7.908;2023-12-20T09:13:10;25.08;;;16.65;;
48835;SDS011;62581;47.342;7.908;2023-12-20T09:15:39;28.83;;;17.42;;
48835;SDS011;62581;47.342;7.908;2023-12-20T09:18:05;28.17;;;17.17;;
48835;SDS011;62581;47.342;7.908;2023-12-20T09:20:33;34.10;;;18.10;;
48835;SDS011;62581;47.342;7.908;2023-12-20T09:23:00;31.30;;;18.17;;
48835;SDS011;62581;47.342;7.908;2023-12-20T09:25:27;29.00;;;16.60;;
48835;SDS011;62581;47.342;7.908;2023-12-20T09:27:55;26.52;;;15.32;;
48835;SDS011;62581;47.342;7.908;2023-12-20T09:30:22;21.58;;;14.65;;
48835;SDS011;62581;47.342;7.908;2023-12-20T09:32:50;26.05;;;15.18;;
48835;SDS011;62581;47.342;7.908;2023-12-20T09:35:17;29.83;;;15.20;;
48835;SDS011;62581;47.342;7.908;2023-12-20T09:37:44;22.55;;;13.93;;
48835;SDS011;62581;47.342;7.908;2023-12-20T09:40:12;26.87;;;15.80;;
48835;SDS011;62581;47.342;7.908;2023-12-20T09:42:41;23.73;;;15.03;;
48835;SDS011;62581;47.342;7.908;2023-12-20T09:45:14;24.88;;;14.52;;
48835;SDS011;62581;47.342;7.908;2023-12-20T09:47:42;24.83;;;14.70;;
48835;SDS011;62581;47.342;7.908;2023-12-20T09:50:11;23.73;;;13.90;;
48835;SDS011;62581;47.342;7.908;2023-12-20T09:52:39;21.92;;;13.02;;
48835;SDS011;62581;47.342;7.908;2023-12-20T09:55:08;19.20;;;13.68;;
48835;SDS011;62581;47.342;7.908;2023-12-20T09:57:35;19.90;;;13.60;;
48835;SDS011;62581;47.342;7.908;2023-12-20T10:00:02;19.23;;;13.20;;
48835;SDS011;62581;47.342;7.908;2023-12-20T10:02:29;23.50;;;14.00;;
48835;SDS011;62581;47.342;7.908;2023-12-20T10:04:57;19.30;;;13.43;;
48835;SDS011;62581;47.342;7.908;2023-12-20T10:07:26;18.70;;;11.57;;
48835;SDS011;62581;47.342;7.908;2023-12-20T10:09:54;31.20;;;14.95;;
48835;SDS011;62581;47.342;7.908;2023-12-20T10:12:22;20.17;;;13.63;;
48835;SDS011;62581;47.342;7.908;2023-12-20T10:14:49;17.58;;;11.75;;
48835;SDS011;62581;47.342;7.908;2023-12-20T10:17:17;17.63;;;11.80;;
48835;SDS011;62581;47.342;7.908;2023-12-20T10:19:44;12.70;;;8.85;;
48835;SDS011;62581;47.342;7.908;2023-12-20T10:22:10;16.00;;;9.90;;
48835;SDS011;62581;47.342;7.908;2023-12-20T10:24:39;17.48;;;12.07;;
48835;SDS011;62581;47.342;7.908;2023-12-20T10:27:07;18.83;;;12.13;;
48835;SDS011;62581;47.342;7.908;2023-12-20T10:34:50;22.55;;;14.02;;
48835;SDS011;62581;47.342;7.908;2023-12-20T10:37:17;17.95;;;12.30;;
48835;SDS011;62581;47.342;7.908;2023-12-20T10:39:46;16.92;;;11.90;;
48835;SDS011;62581;47.342;7.908;2023-12-20T10:42:16;10.18;;;5.88;;
48835;SDS011;62581;47.342;7.908;2023-12-20T10:44:44;14.05;;;7.75;;
48835;SDS011;62581;47.342;7.908;2023-12-20T10:47:12;12.43;;;6.90;;
48835;SDS011;62581;47.342;7.908;2023-12-20T10:49:39;9.30;;;6.30;;
48835;SDS011;62581;47.342;7.908;2023-12-20T10:52:07;7.78;;;5.32;;
48835;SDS011;62581;47.342;7.908;2023-12-20T10:54:37;8.10;;;5.43;;
48835;SDS011;62581;47.342;7.908;2023-12-20T10:57:06;9.82;;;6.10;;
48835;SDS011;62581;47.342;7.908;2023-12-20T10:59:34;15.13;;;7.35;;
48835;SDS011;62581;47.342;7.908;2023-12-20T11:02:03;12.02;;;6.00;;
48835;SDS011;62581;47.342;7.908;2023-12-20T11:04:34;14.77;;;7.60;;
48835;SDS011;62581;47.342;7.908;2023-12-20T11:07:07;13.52;;;9.07;;
48835;SDS011;62581;47.342;7.908;2023-12-20T11:09:43;13.35;;;9.40;;
48835;SDS011;62581;47.342;7.908;2023-12-20T11:12:19;12.60;;;8.63;;
48835;SDS011;62581;47.342;7.908;2023-12-20T11:14:52;15.15;;;9.00;;
48835;SDS011;62581;47.342;7.908;2023-12-20T11:17:22;16.55;;;10.05;;
48835;SDS011;62581;47.342;7.908;2023-12-20T11:20:05;17.70;;;10.00;;
48835;SDS011;62581;47.342;7.908;2023-12-20T11:22:35;13.70;;;9.70;;
48835;SDS011;62581;47.342;7.908;2023-12-20T11:25:04;12.10;;;6.97;;
48835;SDS011;62581;47.342;7.908;2023-12-20T11:27:34;6.38;;;4.65;;
48835;SDS011;62581;47.342;7.908;2023-12-20T11:30:02;2.05;;;1.60;;
48835;SDS011;62581;47.342;7.908;2023-12-20T11:32:33;1.83;;;1.42;;
48835;SDS011;62581;47.342;7.908;2023-12-20T11:35:01;2.17;;;1.20;;
48835;SDS011;62581;47.342;7.908;2023-12-20T11:37:42;1.17;;;1.08;;
48835;SDS011;62581;47.342;7.908;2023-12-20T11:40:13;4.32;;;3.15;;
48835;SDS011;62581;47.342;7.908;2023-12-20T11:42:43;1.55;;;1.02;;
48835;SDS011;62581;47.342;7.908;2023-12-20T11:45:12;1.05;;;0.98;;
48835;SDS011;62581;47.342;7.908;2023-12-20T11:47:42;3.55;;;1.05;;
48835;SDS011;62581;47.342;7.908;2023-12-20T11:50:11;2.83;;;0.80;;
48835;SDS011;62581;47.342;7.908;2023-12-20T11:52:38;4.97;;;0.90;;
48835;SDS011;62581;47.342;7.908;2023-12-20T11:55:05;0.80;;;0.80;;
48835;SDS011;62581;47.342;7.908;2023-12-20T11:57:33;0.80;;;0.80;;
48835;SDS011;62581;47.342;7.908;2023-12-20T12:00:01;1.02;;;0.93;;
48835;SDS011;62581;47.342;7.908;2023-12-20T12:02:29;3.90;;;1.10;;
48835;SDS011;62581;47.342;7.908;2023-12-20T12:04:56;1.40;;;1.02;;
48835;SDS011;62581;47.342;7.908;2023-12-20T12:07:24;1.40;;;1.00;;
48835;SDS011;62581;47.342;7.908;2023-12-20T12:09:51;3.25;;;1.40;;
48835;SDS011;62581;47.342;7.908;2023-12-20T12:12:18;2.88;;;1.02;;
48835;SDS011;62581;47.342;7.908;2023-12-20T12:14:45;1.20;;;1.02;;
48835;SDS011;62581;47.342;7.908;2023-12-20T12:17:14;0.82;;;0.80;;
48835;SDS011;62581;47.342;7.908;2023-12-20T12:22:09;4.47;;;1.05;;
48835;SDS011;62581;47.342;7.908;2023-12-20T12:24:38;2.65;;;0.80;;
48835;SDS011;62581;47.342;7.908;2023-12-20T12:27:05;1.08;;;0.85;;
48835;SDS011;62581;47.342;7.908;2023-12-20T12:29:33;3.65;;;1.50;;
48835;SDS011;62581;47.342;7.908;2023-12-20T12:32:00;1.77;;;0.90;;
48835;SDS011;62581;47.342;7.908;2023-12-20T12:34:32;1.75;;;1.20;;
48835;SDS011;62581;47.342;7.908;2023-12-20T12:36:59;1.83;;;1.10;;
48835;SDS011;62581;47.342;7.908;2023-12-20T12:39:26;1.75;;;1.40;;
48835;SDS011;62581;47.342;7.908;2023-12-20T12:44:22;2.67;;;1.17;;
48835;SDS011;62581;47.342;7.908;2023-12-20T12:46:50;1.60;;;1.50;;
48835;SDS011;62581;47.342;7.908;2023-12-20T12:49:18;2.47;;;1.40;;
48835;SDS011;62581;47.342;7.908;2023-12-20T12:51:47;2.03;;;1.20;;
48835;SDS011;62581;47.342;7.908;2023-12-20T12:54:14;1.20;;;1.10;;
48835;SDS011;62581;47.342;7.908;2023-12-20T12:56:43;2.10;;;1.00;;
48835;SDS011;62581;47.342;7.908;2023-12-20T12:59:12;2.05;;;0.88;;
48835;SDS011;62581;47.342;7.908;2023-12-20T13:01:39;1.27;;;0.80;;
48835;SDS011;62581;47.342;7.908;2023-12-20T13:04:05;3.97;;;0.95;;
48835;SDS011;62581;47.342;7.908;2023-12-20T13:06:35;3.50;;;1.08;;
48835;SDS011;62581;47.342;7.908;2023-12-20T13:09:04;3.42;;;1.08;;
48835;SDS011;62581;47.342;7.908;2023-12-20T13:11:31;1.02;;;0.90;;
48835;SDS011;62581;47.342;7.908;2023-12-20T13:13:58;2.08;;;0.80;;
48835;SDS011;62581;47.342;7.908;2023-12-20T13:16:25;1.23;;;1.02;;
48835;SDS011;62581;47.342;7.908;2023-12-20T13:18:52;1.98;;;1.27;;
48835;SDS011;62581;47.342;7.908;2023-12-20T13:21:19;1.20;;;1.10;;
48835;SDS011;62581;47.342;7.908;2023-12-20T13:23:46;6.82;;;1.73;;
48835;SDS011;62581;47.342;7.908;2023-12-20T13:26:14;2.75;;;1.20;;
48835;SDS011;62581;47.342;7.908;2023-12-20T13:28:41;1.90;;;1.27;;
48835;SDS011;62581;47.342;7.908;2023-12-20T13:31:08;3.97;;;1.70;;
48835;SDS011;62581;47.342;7.908;2023-12-20T13:33:35;4.47;;;1.35;;
48835;SDS011;62581;47.342;7.908;2023-12-20T13:36:03;3.53;;;1.35;;
48835;SDS011;62581;47.342;7.908;2023-12-20T13:38:31;2.97;;;1.00;;
48835;SDS011;62581;47.342;7.908;2023-12-20T13:40:58;4.22;;;1.70;;
48835;SDS011;62581;47.342;7.908;2023-12-20T13:43:26;1.60;;;0.98;;
48835;SDS011;62581;47.342;7.908;2023-12-20T13:45:53;1.27;;;0.90;;
48835;SDS011;62581;47.342;7.908;2023-12-20T13:48:20;6.43;;;1.20;;
48835;SDS011;62581;47.342;7.908;2023-12-20T13:50:47;3.20;;;1.38;;
48835;SDS011;62581;47.342;7.908;2023-12-20T13:53:14;1.75;;;1.00;;
48835;SDS011;62581;47.342;7.908;2023-12-20T13:55:41;1.88;;;0.82;;
48835;SDS011;62581;47.342;7.908;2023-12-20T13:58:08;3.65;;;1.20;;
48835;SDS011;62581;47.342;7.908;2023-12-20T14:00:37;2.75;;;1.27;;
48835;SDS011;62581;47.342;7.908;2023-12-20T14:03:04;1.20;;;0.70;;
48835;SDS011;62581;47.342;7.908;2023-12-20T14:05:32;1.33;;;0.90;;
48835;SDS011;62581;47.342;7.908;2023-12-20T14:07:59;2.38;;;1.15;;
48835;SDS011;62581;47.342;7.908;2023-12-20T14:10:25;4.65;;;1.10;;
48835;SDS011;62581;47.342;7.908;2023-12-20T14:12:53;2.30;;;1.10;;
48835;SDS011;62581;47.342;7.908;2023-12-20T14:15:20;4.25;;;1.25;;
48835;SDS011;62581;47.342;7.908;2023-12-20T14:17:51;3.33;;;1.10;;
48835;SDS011;62581;47.342;7.908;2023-12-20T14:20:19;3.45;;;1.00;;
48835;SDS011;62581;47.342;7.908;2023-12-20T14:22:46;3.78;;;1.15;;
48835;SDS011;62581;47.342;7.908;2023-12-20T14:25:13;2.65;;;1.67;;
48835;SDS011;62581;47.342;7.908;2023-12-20T14:27:41;2.42;;;1.30;;
48835;SDS011;62581;47.342;7.908;2023-12-20T14:30:09;4.15;;;1.10;;
48835;SDS011;62581;47.342;7.908;2023-12-20T14:32:39;3.78;;;1.30;;
48835;SDS011;62581;47.342;7.908;2023-12-20T14:35:08;2.22;;;1.23;;
48835;SDS011;62581;47.342;7.908;2023-12-20T14:37:35;6.95;;;1.50;;
48835;SDS011;62581;47.342;7.908;2023-12-20T14:40:04;1.77;;;1.08;;
48835;SDS011;62581;47.342;7.908;2023-12-20T14:42:35;3.10;;;1.10;;
48835;SDS011;62581;47.342;7.908;2023-12-20T14:45:02;4.63;;;1.23;;